createdAt,value
2022-09-15T00:02:11.875Z,14.93
2022-09-15T00:04:38.544Z,14.93
2022-09-15T00:07:05.004Z,14.92
2022-09-15T00:09:31.648Z,14.88
2022-09-15T00:11:58.041Z,14.82
2022-09-15T00:14:24.584Z,14.79
2022-09-15T00:16:51.052Z,14.75
2022-09-15T00:19:17.488Z,14.73
2022-09-15T00:21:44.161Z,14.71
2022-09-15T00:24:10.748Z,14.65
2022-09-15T00:26:38.321Z,14.61
2022-09-15T00:29:05.504Z,14.56
2022-09-15T00:31:33.283Z,14.54
2022-09-15T00:34:04.284Z,14.53
2022-09-15T00:36:31.125Z,14.54
2022-09-15T00:38:57.679Z,14.55
2022-09-15T00:41:24.926Z,14.58
2022-09-15T00:43:57.075Z,14.61
2022-09-15T00:46:31.313Z,14.64
2022-09-15T00:49:04.062Z,14.68
2022-09-15T00:51:45.732Z,14.71
2022-09-15T00:54:20.410Z,14.70
2022-09-15T00:56:49.624Z,14.71
2022-09-15T00:59:21.084Z,14.73
2022-09-15T01:01:55.170Z,14.73
2022-09-15T01:04:21.935Z,14.72
2022-09-15T01:06:57.436Z,14.71
2022-09-15T01:09:38.655Z,14.66
2022-09-15T01:12:05.618Z,14.60
2022-09-15T01:14:32.165Z,14.58
2022-09-15T01:17:06.863Z,14.55
2022-09-15T01:19:51.396Z,14.51
2022-09-15T01:22:55.603Z,14.46
2022-09-15T01:25:41.456Z,14.45
2022-09-15T01:28:16.612Z,14.46
2022-09-15T01:30:53.262Z,14.49
2022-09-15T01:33:35.217Z,14.49
2022-09-15T01:36:08.989Z,14.53
2022-09-15T01:38:39.985Z,14.54
2022-09-15T01:41:15.423Z,14.54
2022-09-15T01:43:54.923Z,14.49
2022-09-15T01:46:25.460Z,14.47
2022-09-15T01:48:55.305Z,14.42
2022-09-15T01:51:24.100Z,14.38
2022-09-15T01:53:55.616Z,14.35
2022-09-15T01:56:22.375Z,14.30
2022-09-15T01:58:50.477Z,14.27
2022-09-15T02:01:29.748Z,14.25
2022-09-15T02:04:14.019Z,14.25
2022-09-15T02:06:53.418Z,14.23
2022-09-15T02:09:23.076Z,14.21
2022-09-15T02:12:07.737Z,14.20
2022-09-15T02:14:59.375Z,14.21
2022-09-15T02:17:30.317Z,14.22
2022-09-15T02:20:16.188Z,14.25
2022-09-15T02:22:49.656Z,14.27
2022-09-15T02:25:25.845Z,14.27
2022-09-15T02:27:56.150Z,14.29
2022-09-15T02:30:23.224Z,14.25
2022-09-15T02:32:58.020Z,14.21
2022-09-15T02:35:28.785Z,14.20
2022-09-15T02:37:56.657Z,14.16
2022-09-15T02:40:23.409Z,14.11
2022-09-15T02:42:55.759Z,14.11
2022-09-15T02:45:24.817Z,14.13
2022-09-15T02:47:51.528Z,14.11
2022-09-15T02:50:18.889Z,14.14
2022-09-15T02:52:45.381Z,14.18
2022-09-15T02:55:12.497Z,14.19
2022-09-15T02:57:39.014Z,14.20
2022-09-15T03:00:13.128Z,14.21
2022-09-15T03:02:44.748Z,14.24
2022-09-15T03:05:13.651Z,14.27
2022-09-15T03:07:41.036Z,14.29
2022-09-15T03:10:10.417Z,14.30
2022-09-15T03:12:38.812Z,14.30
2022-09-15T03:15:06.773Z,14.30
2022-09-15T03:17:38.112Z,14.29
2022-09-15T03:20:07.035Z,14.31
2022-09-15T03:22:33.812Z,14.32
2022-09-15T03:25:00.735Z,14.32
2022-09-15T03:27:27.380Z,14.31
2022-09-15T03:29:54.009Z,14.27
2022-09-15T03:32:20.524Z,14.25
2022-09-15T03:34:47.028Z,14.22
2022-09-15T03:37:13.501Z,14.20
2022-09-15T03:39:39.882Z,14.19
2022-09-15T03:42:09.400Z,14.19
2022-09-15T03:44:35.859Z,14.18
2022-09-15T03:47:03.812Z,14.20
2022-09-15T03:49:30.345Z,14.23
2022-09-15T03:51:58.717Z,14.24
2022-09-15T03:54:26.231Z,14.23
2022-09-15T03:56:52.631Z,14.24
2022-09-15T03:59:20.741Z,14.28
2022-09-15T04:01:48.397Z,14.28
2022-09-15T04:04:18.293Z,14.30
2022-09-15T04:06:45.155Z,14.30
2022-09-15T04:09:11.731Z,14.30
2022-09-15T04:11:39.573Z,14.30
2022-09-15T04:14:06.308Z,14.28
2022-09-15T04:16:32.787Z,14.29
2022-09-15T04:18:59.464Z,14.30
2022-09-15T04:21:26.846Z,14.32
2022-09-15T04:23:54.233Z,14.34
2022-09-15T04:26:26.395Z,14.30
2022-09-15T04:28:53.137Z,14.31
2022-09-15T04:31:20.333Z,14.32
2022-09-15T04:33:47.768Z,14.33
2022-09-15T04:36:17.207Z,14.32
2022-09-15T04:38:43.860Z,14.34
2022-09-15T04:41:11.359Z,14.36
2022-09-15T04:43:40.538Z,14.38
2022-09-15T04:46:07.625Z,14.41
2022-09-15T04:48:34.139Z,14.41
2022-09-15T04:51:21.439Z,14.40
2022-09-15T04:53:49.029Z,14.42
2022-09-15T04:56:21.507Z,14.42
2022-09-15T04:58:53.650Z,14.41
2022-09-15T05:01:26.057Z,14.40
2022-09-15T05:03:52.899Z,14.39
2022-09-15T05:06:22.450Z,14.37
2022-09-15T05:08:51.469Z,14.36
2022-09-15T05:11:19.344Z,14.36
2022-09-15T05:13:46.507Z,14.34
2022-09-15T05:16:18.429Z,14.35
2022-09-15T05:18:46.703Z,14.36
2022-09-15T05:21:15.731Z,14.36
2022-09-15T05:23:42.420Z,14.39
2022-09-15T05:26:13.250Z,14.39
2022-09-15T05:28:40.399Z,14.43
2022-09-15T05:31:21.229Z,14.43
2022-09-15T05:33:49.218Z,14.45
2022-09-15T05:36:17.400Z,14.45
2022-09-15T05:38:44.526Z,14.46
2022-09-15T05:41:13.143Z,14.45
2022-09-15T05:43:40.159Z,14.44
2022-09-15T05:46:07.958Z,14.46
2022-09-15T05:48:34.857Z,14.47
2022-09-15T05:51:01.777Z,14.49
2022-09-15T05:53:29.009Z,14.47
2022-09-15T05:56:00.045Z,14.47
2022-09-15T05:58:27.716Z,14.46
2022-09-15T06:00:54.658Z,14.47
2022-09-15T06:03:22.115Z,14.51
2022-09-15T06:05:48.791Z,14.53
2022-09-15T06:08:15.753Z,14.58
2022-09-15T06:10:42.201Z,14.64
2022-09-15T06:13:08.597Z,14.73
2022-09-15T06:15:35.173Z,14.81
2022-09-15T06:18:01.610Z,14.94
2022-09-15T06:20:28.158Z,15.08
2022-09-15T06:22:56.086Z,15.17
2022-09-15T06:25:23.878Z,15.22
2022-09-15T06:27:50.603Z,15.30
2022-09-15T06:30:17.965Z,15.37
2022-09-15T06:32:48.059Z,15.42
2022-09-15T06:35:15.300Z,15.39
2022-09-15T06:37:41.817Z,15.36
2022-09-15T06:40:09.041Z,15.35
2022-09-15T06:42:35.595Z,15.38
2022-09-15T06:45:01.945Z,15.41
2022-09-15T06:47:33.743Z,15.48
2022-09-15T06:50:00.907Z,15.57
2022-09-15T06:52:27.647Z,15.71
2022-09-15T06:54:54.165Z,15.90
2022-09-15T06:57:20.636Z,17.14
2022-09-15T06:59:46.985Z,16.99
2022-09-15T07:02:13.629Z,17.06
2022-09-15T07:04:40.121Z,17.45
2022-09-15T07:07:06.739Z,17.11
2022-09-15T07:09:33.248Z,16.87
2022-09-15T07:11:59.627Z,16.74
2022-09-15T07:14:26.013Z,16.66
2022-09-15T07:16:52.577Z,16.55
2022-09-15T07:19:19.148Z,16.45
2022-09-15T07:21:45.513Z,16.31
2022-09-15T07:24:12.700Z,16.25
2022-09-15T07:26:39.221Z,16.16
2022-09-15T07:29:06.849Z,16.14
2022-09-15T07:31:36.221Z,16.12
2022-09-15T07:34:03.364Z,16.12
2022-09-15T07:36:31.007Z,16.15
2022-09-15T07:38:58.297Z,16.24
2022-09-15T07:41:29.852Z,16.33
2022-09-15T07:43:58.139Z,16.43
2022-09-15T07:46:25.955Z,16.59
2022-09-15T07:48:56.360Z,16.70
2022-09-15T07:51:24.083Z,16.89
2022-09-15T07:53:51.923Z,17.03
2022-09-15T07:56:18.735Z,16.98
2022-09-15T07:58:46.447Z,16.94
2022-09-15T08:01:16.393Z,17.16
2022-09-15T08:03:46.417Z,17.45
2022-09-15T08:06:17.977Z,17.52
2022-09-15T08:08:45.633Z,17.53
2022-09-15T08:11:18.443Z,17.53
2022-09-15T08:13:49.664Z,17.54
2022-09-15T08:16:21.985Z,17.56
2022-09-15T08:18:49.828Z,17.58
2022-09-15T08:21:20.411Z,17.66
2022-09-15T08:23:51.808Z,17.80
2022-09-15T08:26:18.941Z,17.89
2022-09-15T08:28:45.372Z,17.98
2022-09-15T08:31:13.789Z,18.09
2022-09-15T08:33:45.250Z,18.18
2022-09-15T08:36:13.359Z,18.30
2022-09-15T08:38:40.830Z,18.45
2022-09-15T08:41:22.177Z,18.61
2022-09-15T08:44:11.989Z,18.70
2022-09-15T08:47:10.740Z,18.65
2022-09-15T08:49:58.944Z,18.71
2022-09-15T08:53:07.003Z,18.79
2022-09-15T08:55:51.013Z,18.77
2022-09-15T08:58:21.226Z,18.65
2022-09-15T09:01:02.259Z,18.63
2022-09-15T09:04:02.624Z,18.61
2022-09-15T09:06:59.068Z,18.61
2022-09-15T09:09:28.493Z,18.52
2022-09-15T09:12:12.804Z,18.43
2022-09-15T09:15:09.852Z,18.37
2022-09-15T09:18:07.510Z,18.38
2022-09-15T09:20:59.695Z,18.45
2022-09-15T09:23:29.765Z,18.58
2022-09-15T09:25:57.903Z,18.69
2022-09-15T09:28:35.211Z,18.65
2022-09-15T09:31:08.454Z,18.51
2022-09-15T09:33:48.283Z,18.40
2022-09-15T09:36:14.924Z,18.29
2022-09-15T09:38:44.940Z,18.22
2022-09-15T09:41:15.122Z,18.19
2022-09-15T09:43:44.025Z,18.13
2022-09-15T09:46:14.088Z,18.16
2022-09-15T09:48:45.343Z,18.25
2022-09-15T09:51:36.448Z,18.48
2022-09-15T09:54:05.566Z,18.68
2022-09-15T09:56:32.132Z,18.93
2022-09-15T09:58:58.669Z,19.17
2022-09-15T10:01:26.918Z,19.52
2022-09-15T10:04:17.195Z,19.71
2022-09-15T10:06:44.089Z,19.88
2022-09-15T10:09:16.951Z,19.98
2022-09-15T10:11:43.277Z,20.04
2022-09-15T10:14:19.830Z,20.00
2022-09-15T10:16:57.709Z,19.97
2022-09-15T10:19:24.522Z,19.88
2022-09-15T10:21:51.148Z,19.83
2022-09-15T10:24:31.232Z,19.69
2022-09-15T10:27:25.391Z,19.75
2022-09-15T10:29:52.035Z,19.78
2022-09-15T10:32:30.016Z,19.83
2022-09-15T10:35:19.303Z,20.04
2022-09-15T10:37:45.615Z,20.35
2022-09-15T10:40:36.560Z,20.54
2022-09-15T10:43:05.852Z,20.68
2022-09-15T10:45:40.471Z,20.78
2022-09-15T10:48:25.047Z,21.12
2022-09-15T10:51:06.896Z,21.27
2022-09-15T10:57:13.440Z,21.41
2022-09-15T10:59:54.431Z,21.56
2022-09-15T11:02:45.717Z,21.64
2022-09-15T11:05:23.053Z,21.72
2022-09-15T11:08:27.297Z,21.73
2022-09-15T11:11:09.036Z,21.69
2022-09-15T11:13:50.368Z,21.84
2022-09-15T11:16:31.306Z,21.86
2022-09-15T11:19:00.411Z,21.95
2022-09-15T11:21:37.971Z,21.90
2022-09-15T11:24:34.986Z,22.07
2022-09-15T11:27:05.021Z,22.11
2022-09-15T11:29:42.460Z,22.50
2022-09-15T11:32:17.741Z,23.04
2022-09-15T11:34:53.384Z,23.51
2022-09-15T11:37:26.737Z,23.08
2022-09-15T11:40:16.309Z,22.46
2022-09-15T11:43:21.465Z,21.89
2022-09-15T11:45:54.587Z,21.47
2022-09-15T11:48:40.211Z,21.30
2022-09-15T11:51:07.464Z,21.18
2022-09-15T11:53:41.244Z,21.12
2022-09-15T11:56:15.924Z,21.07
2022-09-15T11:59:04.641Z,20.98
2022-09-15T12:01:48.390Z,21.11
2022-09-15T12:04:22.101Z,21.56
2022-09-15T12:06:54.511Z,21.85
2022-09-15T12:09:22.174Z,22.11
2022-09-15T12:11:55.120Z,22.12
2022-09-15T12:14:43.794Z,22.38
2022-09-15T12:17:41.819Z,22.59
2022-09-15T12:20:17.444Z,22.75
2022-09-15T12:22:53.556Z,22.70
2022-09-15T12:25:26.960Z,22.94
2022-09-15T12:28:21.464Z,23.18
2022-09-15T12:30:49.505Z,22.98
2022-09-15T12:33:44.935Z,22.84
2022-09-15T12:36:30.904Z,22.53
2022-09-15T12:38:58.914Z,22.48
2022-09-15T12:41:26.324Z,22.15
2022-09-15T12:43:59.351Z,21.86
2022-09-15T12:46:26.398Z,21.74
2022-09-15T12:48:59.390Z,21.63
2022-09-15T12:51:29.107Z,21.52
2022-09-15T12:54:01.037Z,21.41
2022-09-15T12:59:26.321Z,20.85
2022-09-15T13:01:54.471Z,20.54
2022-09-15T13:04:43.044Z,20.23
2022-09-15T13:07:15.342Z,20.03
2022-09-15T13:10:19.268Z,19.94
2022-09-15T13:12:55.279Z,19.89
2022-09-15T13:15:25.264Z,19.89
2022-09-15T13:17:52.623Z,19.95
2022-09-15T13:20:33.536Z,19.93
2022-09-15T13:23:03.092Z,20.07
2022-09-15T13:25:40.512Z,20.20
2022-09-15T13:28:11.615Z,20.28
2022-09-15T13:31:06.590Z,20.37
2022-09-15T13:40:27.220Z,20.53
2022-09-15T13:43:22.775Z,20.45
2022-09-15T13:46:04.200Z,20.44
2022-09-15T13:49:23.464Z,20.41
2022-09-15T13:51:59.751Z,20.40
2022-09-15T13:54:26.653Z,20.48
2022-09-15T13:56:53.295Z,20.80
2022-09-15T13:59:25.635Z,21.22
2022-09-15T14:01:53.331Z,21.31
2022-09-15T14:04:25.561Z,21.12
2022-09-15T14:07:00.788Z,20.88
2022-09-15T14:09:33.405Z,20.82
2022-09-15T14:12:04.849Z,20.77
2022-09-15T14:14:35.100Z,20.60
2022-09-15T14:17:02.058Z,20.45
2022-09-15T14:19:37.119Z,20.26
2022-09-15T14:22:26.602Z,20.03
2022-09-15T14:24:54.181Z,19.91
2022-09-15T14:27:33.669Z,19.86
2022-09-15T14:30:06.619Z,19.90
2022-09-15T14:32:38.511Z,20.29
2022-09-15T14:35:09.391Z,20.66
2022-09-15T14:37:36.009Z,20.90
2022-09-15T14:40:18.017Z,21.12
2022-09-15T14:42:44.631Z,21.34
2022-09-15T14:48:05.886Z,21.58
2022-09-15T14:53:21.050Z,21.40
2022-09-15T14:56:08.236Z,21.31
2022-09-15T14:58:58.803Z,21.55
2022-09-15T15:01:25.321Z,21.76
2022-09-15T15:03:58.575Z,21.82
2022-09-15T15:06:35.506Z,21.62
2022-09-15T15:09:37.820Z,21.35
2022-09-15T15:12:25.912Z,21.19
2022-09-15T15:14:54.503Z,21.10
2022-09-15T15:17:44.163Z,21.01
2022-09-15T15:20:10.467Z,20.87
2022-09-15T15:22:38.831Z,20.74
2022-09-15T15:25:29.808Z,20.54
2022-09-15T15:27:57.924Z,20.44
2022-09-15T15:30:30.773Z,20.35
2022-09-15T15:33:19.646Z,20.35
2022-09-15T15:35:49.407Z,20.51
2022-09-15T15:38:25.378Z,20.65
2022-09-15T15:41:01.092Z,20.84
2022-09-15T15:43:28.932Z,20.89
2022-09-15T15:46:00.854Z,20.75
2022-09-15T15:48:33.997Z,20.49
2022-09-15T15:51:04.538Z,20.24
2022-09-15T15:53:31.420Z,20.08
2022-09-15T15:55:59.544Z,19.94
2022-09-15T15:58:26.219Z,19.83
2022-09-15T16:00:57.340Z,19.77
2022-09-15T16:03:24.898Z,19.73
2022-09-15T16:06:02.937Z,19.68
2022-09-15T16:08:32.133Z,19.61
2022-09-15T16:11:01.674Z,19.51
2022-09-15T16:13:28.815Z,19.39
2022-09-15T16:15:57.830Z,19.24
2022-09-15T16:18:25.313Z,19.18
2022-09-15T16:20:52.298Z,19.09
2022-09-15T16:23:22.743Z,19.06
2022-09-15T16:25:53.605Z,19.00
2022-09-15T16:28:20.149Z,18.96
2022-09-15T16:30:47.419Z,18.98
2022-09-15T16:33:18.454Z,18.91
2022-09-15T16:35:55.200Z,18.85
2022-09-15T16:38:25.380Z,18.75
2022-09-15T16:40:52.297Z,18.69
2022-09-15T16:43:22.642Z,18.51
2022-09-15T16:45:50.527Z,18.39
2022-09-15T16:48:17.393Z,18.25
2022-09-15T16:51:01.666Z,18.18
2022-09-15T16:53:31.598Z,18.19
2022-09-15T16:55:58.731Z,18.01
2022-09-15T16:58:31.196Z,17.95
2022-09-15T17:01:04.712Z,17.83
2022-09-15T17:03:31.598Z,17.82
2022-09-15T17:06:00.407Z,17.72
2022-09-15T17:08:30.451Z,17.61
2022-09-15T17:11:02.588Z,17.52
2022-09-15T17:13:39.998Z,17.45
2022-09-15T17:16:08.900Z,17.38
2022-09-15T17:18:35.273Z,17.36
2022-09-15T17:21:01.657Z,17.33
2022-09-15T17:23:35.448Z,17.29
2022-09-15T17:26:05.052Z,17.21
2022-09-15T17:28:33.853Z,17.15
2022-09-15T17:31:13.795Z,17.07
2022-09-15T17:33:43.894Z,17.02
2022-09-15T17:36:22.358Z,16.98
2022-09-15T17:38:51.042Z,16.95
2022-09-15T17:41:19.521Z,16.92
2022-09-15T17:43:46.546Z,16.88
2022-09-15T17:46:13.619Z,16.88
2022-09-15T17:48:40.304Z,16.85
2022-09-15T17:51:07.948Z,16.81
2022-09-15T17:53:34.498Z,16.72
2022-09-15T17:56:01.092Z,16.58
2022-09-15T17:58:29.855Z,16.54
2022-09-15T18:01:01.555Z,16.43
2022-09-15T18:03:34.851Z,16.33
2022-09-15T18:06:07.474Z,16.27
2022-09-15T18:08:35.914Z,16.14
2022-09-15T18:11:03.840Z,16.12
2022-09-15T18:13:31.033Z,16.10
2022-09-15T18:15:58.195Z,16.05
2022-09-15T18:18:27.389Z,15.98
2022-09-15T18:20:55.854Z,15.95
2022-09-15T18:23:24.301Z,15.94
2022-09-15T18:25:51.344Z,15.93
2022-09-15T18:28:19.078Z,15.94
2022-09-15T18:30:48.021Z,15.88
2022-09-15T18:33:23.437Z,15.79
2022-09-15T18:35:52.488Z,15.56
2022-09-15T18:38:19.146Z,15.45
2022-09-15T18:40:50.323Z,15.27
2022-09-15T18:43:17.547Z,15.19
2022-09-15T18:45:44.135Z,15.15
2022-09-15T18:48:13.059Z,15.03
2022-09-15T18:50:40.915Z,14.94
2022-09-15T18:53:24.034Z,14.82
2022-09-15T18:56:11.204Z,14.88
2022-09-15T18:58:59.267Z,14.90
2022-09-15T19:01:29.838Z,14.87
2022-09-15T19:03:58.692Z,14.82
2022-09-15T19:06:31.322Z,14.77
2022-09-15T19:09:10.892Z,14.77
2022-09-15T19:11:41.796Z,14.81
2022-09-15T19:14:10.581Z,14.83
2022-09-15T19:16:56.976Z,14.88
2022-09-15T19:19:25.329Z,14.91
2022-09-15T19:21:51.766Z,14.89
2022-09-15T19:24:18.444Z,14.90
2022-09-15T19:26:50.252Z,14.89
2022-09-15T19:29:16.913Z,14.81
2022-09-15T19:31:45.632Z,14.80
2022-09-15T19:34:11.999Z,14.79
2022-09-15T19:36:38.437Z,14.79
2022-09-15T19:39:09.007Z,14.77
2022-09-15T19:41:35.371Z,14.72
2022-09-15T19:44:02.508Z,14.65
2022-09-15T19:46:40.161Z,14.59
2022-09-15T19:49:10.170Z,14.51
2022-09-15T19:52:40.738Z,14.38
2022-09-15T19:54:41.213Z,14.36
2022-09-15T19:57:09.243Z,14.35
2022-09-15T19:59:43.272Z,14.35
2022-09-15T20:02:10.719Z,14.42
2022-09-15T20:04:39.986Z,14.46
2022-09-15T20:07:07.979Z,14.58
2022-09-15T20:09:34.620Z,14.61
2022-09-15T20:12:03.788Z,14.63
2022-09-15T20:14:33.721Z,14.60
2022-09-15T20:17:01.290Z,14.58
2022-09-15T20:19:29.982Z,14.55
2022-09-15T20:21:57.544Z,14.51
2022-09-15T20:24:24.458Z,14.44
2022-09-15T20:26:52.073Z,14.39
2022-09-15T20:29:23.118Z,14.36
2022-09-15T20:31:49.554Z,14.31
2022-09-15T20:34:21.581Z,14.29
2022-09-15T20:36:47.953Z,14.28
2022-09-15T20:39:16.409Z,14.23
2022-09-15T20:41:45.233Z,14.21
2022-09-15T20:44:19.615Z,14.21
2022-09-15T20:46:46.169Z,14.26
2022-09-15T20:49:12.999Z,14.33
2022-09-15T20:51:39.410Z,14.37
2022-09-15T20:54:05.858Z,14.38
2022-09-15T20:56:34.891Z,14.41
2022-09-15T20:59:01.880Z,14.36
2022-09-15T21:01:34.090Z,14.32
2022-09-15T21:04:03.635Z,14.20
2022-09-15T21:06:31.495Z,14.08
2022-09-15T21:08:58.501Z,14.02
2022-09-15T21:11:27.085Z,13.96
2022-09-15T21:13:54.865Z,13.87
2022-09-15T21:16:24.327Z,13.78
2022-09-15T21:18:51.109Z,13.64
2022-09-15T21:21:23.288Z,13.60
2022-09-15T21:23:53.059Z,13.54
2022-09-15T21:26:28.172Z,13.49
2022-09-15T21:28:55.978Z,13.47
2022-09-15T21:31:28.201Z,13.48
2022-09-15T21:33:55.582Z,13.48
2022-09-15T21:36:32.000Z,13.51
2022-09-15T21:38:59.383Z,13.54
2022-09-15T21:41:29.043Z,13.53
2022-09-15T21:43:56.340Z,13.55
2022-09-15T21:46:32.565Z,13.42
2022-09-15T21:49:00.625Z,13.38
2022-09-15T21:51:29.630Z,13.29
2022-09-15T21:53:58.554Z,13.27
2022-09-15T21:56:27.463Z,13.17
2022-09-15T21:58:55.017Z,13.07
2022-09-15T22:01:22.841Z,13.02
2022-09-15T22:03:57.540Z,13.01
2022-09-15T22:06:33.100Z,12.95
2022-09-15T22:09:10.878Z,12.94
2022-09-15T22:11:40.220Z,12.92
2022-09-15T22:14:10.480Z,12.82
2022-09-15T22:16:38.780Z,12.74
2022-09-15T22:19:16.247Z,12.75
2022-09-15T22:21:43.905Z,12.81
2022-09-15T22:24:12.838Z,12.83
2022-09-15T22:26:40.664Z,12.83
2022-09-15T22:29:07.055Z,12.83
2022-09-15T22:31:34.156Z,12.82
2022-09-15T22:34:00.656Z,12.83
2022-09-15T22:36:30.329Z,12.85
2022-09-15T22:39:03.889Z,12.84
2022-09-15T22:41:33.029Z,12.79
2022-09-15T22:43:59.405Z,12.83
2022-09-15T22:46:27.498Z,12.83
2022-09-15T22:48:53.906Z,12.78
2022-09-15T22:51:20.544Z,12.79
2022-09-15T22:53:47.163Z,12.78
2022-09-15T22:56:19.663Z,12.77
2022-09-15T22:58:47.955Z,12.72
2022-09-15T23:01:17.445Z,12.69
2022-09-15T23:03:47.538Z,12.70
2022-09-15T23:06:15.199Z,12.67
2022-09-15T23:08:41.729Z,12.69
2022-09-15T23:11:11.546Z,12.68
2022-09-15T23:13:38.021Z,12.69
2022-09-15T23:16:05.842Z,12.73
2022-09-15T23:18:32.876Z,12.78
2022-09-15T23:21:01.688Z,12.79
2022-09-15T23:23:29.341Z,12.83
2022-09-15T23:25:56.131Z,12.83
2022-09-15T23:28:23.448Z,12.82
2022-09-15T23:30:54.898Z,12.77
2022-09-15T23:33:22.621Z,12.75
2022-09-15T23:35:49.086Z,12.77
2022-09-15T23:38:16.983Z,12.71
2022-09-15T23:40:44.641Z,12.67
2022-09-15T23:43:12.134Z,12.65
2022-09-15T23:45:38.604Z,12.63
2022-09-15T23:48:06.956Z,12.63
2022-09-15T23:50:33.346Z,12.68
2022-09-15T23:53:00.099Z,12.72
2022-09-15T23:55:26.966Z,12.75
2022-09-15T23:57:53.861Z,12.72
